sensor_id;sensor_type;location;lat;lon;timestamp;pressure;altitude;pressure_sealevel;temperature;humidity
73316;BME280;61545;53.726;-0.444;2022-12-18T00:03:13;1017.7;;;0.3;100.0
73316;BME280;61545;53.726;-0.444;2022-12-18T00:08:13;1017.8;;;0.4;100.0
73316;BME280;61545;53.726;-0.444;2022-12-18T00:13:13;1017.7;;;0.3;100.0
73316;BME280;61545;53.726;-0.444;2022-12-18T00:18:12;1017.7;;;0.3;100.0
73316;BME280;61545;53.726;-0.444;2022-12-18T00:23:12;1017.7;;;0.3;100.0
73316;BME280;61545;53.726;-0.444;2022-12-18T00:28:12;1017.8;;;0.3;100.0
73316;BME280;61545;53.726;-0.444;2022-12-18T00:33:12;1017.9;;;0.3;100.0
73316;BME280;61545;53.726;-0.444;2022-12-18T00:38:12;1017.8;;;0.2;100.0
73316;BME280;61545;53.726;-0.444;2022-12-18T00:43:12;1017.7;;;0.2;100.0
73316;BME280;61545;53.726;-0.444;2022-12-18T00:48:12;1017.8;;;0.2;100.0
73316;BME280;61545;53.726;-0.444;2022-12-18T00:53:13;1017.8;;;0.2;100.0
73316;BME280;61545;53.726;-0.444;2022-12-18T00:58:13;1017.8;;;0.2;100.0
73316;BME280;61545;53.726;-0.444;2022-12-18T01:03:13;1017.7;;;0.0;100.0
73316;BME280;61545;53.726;-0.444;2022-12-18T01:08:12;1017.8;;;0.0;100.0
73316;BME280;61545;53.726;-0.444;2022-12-18T01:13:13;1017.8;;;0.0;100.0
73316;BME280;61545;53.726;-0.444;2022-12-18T01:18:12;1017.9;;;0.0;100.0
73316;BME280;61545;53.726;-0.444;2022-12-18T01:23:12;1017.8;;;0.0;100.0
73316;BME280;61545;53.726;-0.444;2022-12-18T01:28:12;1018.0;;;-0.0;100.0
73316;BME280;61545;53.726;-0.444;2022-12-18T01:33:12;1017.9;;;-0.0;100.0
73316;BME280;61545;53.726;-0.444;2022-12-18T01:38:12;1018.0;;;-0.0;100.0
73316;BME280;61545;53.726;-0.444;2022-12-18T01:43:12;1017.9;;;-0.1;100.0
73316;BME280;61545;53.726;-0.444;2022-12-18T01:48:12;1018.0;;;-0.1;100.0
73316;BME280;61545;53.726;-0.444;2022-12-18T01:53:14;1018.0;;;-0.1;100.0
73316;BME280;61545;53.726;-0.444;2022-12-18T01:58:12;1018.0;;;-0.1;100.0
73316;BME280;61545;53.726;-0.444;2022-12-18T02:03:12;1017.9;;;-0.1;100.0
73316;BME280;61545;53.726;-0.444;2022-12-18T02:08:15;1017.9;;;-0.1;100.0
73316;BME280;61545;53.726;-0.444;2022-12-18T02:13:14;1017.8;;;-0.1;100.0
73316;BME280;61545;53.726;-0.444;2022-12-18T02:18:14;1017.8;;;-0.1;100.0
73316;BME280;61545;53.726;-0.444;2022-12-18T02:23:20;1017.9;;;-0.1;100.0
73316;BME280;61545;53.726;-0.444;2022-12-18T02:28:13;1017.9;;;-0.2;100.0
73316;BME280;61545;53.726;-0.444;2022-12-18T02:33:12;1017.9;;;-0.3;100.0
73316;BME280;61545;53.726;-0.444;2022-12-18T02:38:12;1017.8;;;-0.3;100.0
73316;BME280;61545;53.726;-0.444;2022-12-18T02:43:15;1017.9;;;-0.4;100.0
73316;BME280;61545;53.726;-0.444;2022-12-18T02:48:12;1017.8;;;-0.3;100.0
73316;BME280;61545;53.726;-0.444;2022-12-18T02:53:16;1017.8;;;-0.4;100.0
73316;BME280;61545;53.726;-0.444;2022-12-18T02:58:15;1017.8;;;-0.5;100.0
73316;BME280;61545;53.726;-0.444;2022-12-18T03:03:14;1017.8;;;-0.5;100.0
73316;BME280;61545;53.726;-0.444;2022-12-18T03:08:14;1017.8;;;-0.5;100.0
73316;BME280;61545;53.726;-0.444;2022-12-18T03:13:13;1017.8;;;-0.6;100.0
73316;BME280;61545;53.726;-0.444;2022-12-18T03:18:14;1018.0;;;-0.6;100.0
73316;BME280;61545;53.726;-0.444;2022-12-18T03:23:14;1018.0;;;-0.6;100.0
73316;BME280;61545;53.726;-0.444;2022-12-18T03:28:13;1018.1;;;-0.7;100.0
73316;BME280;61545;53.726;-0.444;2022-12-18T03:33:15;1018.1;;;-0.6;100.0
73316;BME280;61545;53.726;-0.444;2022-12-18T03:38:12;1018.0;;;-0.6;100.0
73316;BME280;61545;53.726;-0.444;2022-12-18T03:43:16;1017.9;;;-0.6;100.0
73316;BME280;61545;53.726;-0.444;2022-12-18T03:48:15;1017.9;;;-0.6;100.0
73316;BME280;61545;53.726;-0.444;2022-12-18T03:53:18;1017.9;;;-0.7;100.0
73316;BME280;61545;53.726;-0.444;2022-12-18T03:58:13;1017.8;;;-0.6;100.0
73316;BME280;61545;53.726;-0.444;2022-12-18T04:03:12;1017.8;;;-0.6;100.0
73316;BME280;61545;53.726;-0.444;2022-12-18T04:08:13;1017.6;;;-0.7;100.0
73316;BME280;61545;53.726;-0.444;2022-12-18T04:13:13;1017.7;;;-0.8;100.0
73316;BME280;61545;53.726;-0.444;2022-12-18T04:18:12;1017.7;;;-0.8;100.0
73316;BME280;61545;53.726;-0.444;2022-12-18T04:23:13;1017.7;;;-0.8;100.0
73316;BME280;61545;53.726;-0.444;2022-12-18T04:28:13;1017.7;;;-0.8;100.0
73316;BME280;61545;53.726;-0.444;2022-12-18T04:33:16;1017.7;;;-0.9;100.0
73316;BME280;61545;53.726;-0.444;2022-12-18T04:38:12;1017.7;;;-0.8;100.0
73316;BME280;61545;53.726;-0.444;2022-12-18T04:43:13;1017.5;;;-0.9;100.0
73316;BME280;61545;53.726;-0.444;2022-12-18T04:48:12;1017.4;;;-1.0;100.0
73316;BME280;61545;53.726;-0.444;2022-12-18T04:53:12;1017.2;;;-1.0;100.0
73316;BME280;61545;53.726;-0.444;2022-12-18T04:58:12;1016.9;;;-0.9;100.0
73316;BME280;61545;53.726;-0.444;2022-12-18T05:03:13;1017.0;;;-0.8;100.0
73316;BME280;61545;53.726;-0.444;2022-12-18T05:08:12;1016.9;;;-0.8;100.0
73316;BME280;61545;53.726;-0.444;2022-12-18T05:13:12;1016.9;;;-1.1;100.0
73316;BME280;61545;53.726;-0.444;2022-12-18T05:18:12;1017.1;;;-1.0;100.0
73316;BME280;61545;53.726;-0.444;2022-12-18T05:23:13;1017.0;;;-1.0;100.0
73316;BME280;61545;53.726;-0.444;2022-12-18T05:28:12;1016.9;;;-1.1;100.0
73316;BME280;61545;53.726;-0.444;2022-12-18T05:33:12;1016.7;;;-1.0;100.0
73316;BME280;61545;53.726;-0.444;2022-12-18T05:38:12;1016.8;;;-1.1;100.0
73316;BME280;61545;53.726;-0.444;2022-12-18T05:43:13;1016.8;;;-1.0;100.0
73316;BME280;61545;53.726;-0.444;2022-12-18T05:48:13;1016.7;;;-1.0;100.0
73316;BME280;61545;53.726;-0.444;2022-12-18T05:53:13;1016.5;;;-1.1;100.0
73316;BME280;61545;53.726;-0.444;2022-12-18T05:58:13;1016.5;;;-1.1;100.0
73316;BME280;61545;53.726;-0.444;2022-12-18T06:03:13;1016.5;;;-1.1;100.0
73316;BME280;61545;53.726;-0.444;2022-12-18T06:08:13;1016.6;;;-1.0;100.0
73316;BME280;61545;53.726;-0.444;2022-12-18T06:13:12;1016.5;;;-1.0;100.0
73316;BME280;61545;53.726;-0.444;2022-12-18T06:18:12;1016.5;;;-1.0;100.0
73316;BME280;61545;53.726;-0.444;2022-12-18T06:23:13;1016.6;;;-0.9;100.0
73316;BME280;61545;53.726;-0.444;2022-12-18T06:28:12;1016.6;;;-0.9;100.0
73316;BME280;61545;53.726;-0.444;2022-12-18T06:33:13;1016.7;;;-0.8;100.0
73316;BME280;61545;53.726;-0.444;2022-12-18T06:38:12;1016.7;;;-0.9;100.0
73316;BME280;61545;53.726;-0.444;2022-12-18T06:43:13;1016.7;;;-0.8;100.0
73316;BME280;61545;53.726;-0.444;2022-12-18T06:48:12;1016.8;;;-1.0;100.0
73316;BME280;61545;53.726;-0.444;2022-12-18T06:53:13;1016.9;;;-0.8;100.0
73316;BME280;61545;53.726;-0.444;2022-12-18T06:58:13;1016.8;;;-1.0;100.0
73316;BME280;61545;53.726;-0.444;2022-12-18T07:03:13;1016.9;;;-0.9;100.0
73316;BME280;61545;53.726;-0.444;2022-12-18T07:08:12;1016.8;;;-0.8;100.0
73316;BME280;61545;53.726;-0.444;2022-12-18T07:13:12;1016.7;;;-0.8;100.0
73316;BME280;61545;53.726;-0.444;2022-12-18T07:18:13;1016.8;;;-0.9;100.0
73316;BME280;61545;53.726;-0.444;2022-12-18T07:23:13;1016.5;;;-0.8;100.0
73316;BME280;61545;53.726;-0.444;2022-12-18T07:28:13;1016.7;;;-0.8;100.0
73316;BME280;61545;53.726;-0.444;2022-12-18T07:33:12;1016.7;;;-0.8;100.0
73316;BME280;61545;53.726;-0.444;2022-12-18T07:38:12;1016.6;;;-0.8;100.0
73316;BME280;61545;53.726;-0.444;2022-12-18T07:43:13;1016.5;;;-0.7;100.0
73316;BME280;61545;53.726;-0.444;2022-12-18T07:48:12;1016.2;;;-0.7;100.0
73316;BME280;61545;53.726;-0.444;2022-12-18T07:53:12;1016.2;;;-0.7;100.0
73316;BME280;61545;53.726;-0.444;2022-12-18T07:58:12;1016.1;;;-0.7;100.0
73316;BME280;61545;53.726;-0.444;2022-12-18T08:03:14;1016.1;;;-0.7;100.0
73316;BME280;61545;53.726;-0.444;2022-12-18T08:08:12;1016.0;;;-0.7;100.0
73316;BME280;61545;53.726;-0.444;2022-12-18T08:13:12;1016.1;;;-0.6;100.0
73316;BME280;61545;53.726;-0.444;2022-12-18T08:18:12;1016.0;;;-0.7;100.0
73316;BME280;61545;53.726;-0.444;2022-12-18T08:23:13;1015.9;;;-0.6;100.0
73316;BME280;61545;53.726;-0.444;2022-12-18T08:28:13;1016.0;;;-0.6;100.0
73316;BME280;61545;53.726;-0.444;2022-12-18T08:33:13;1016.0;;;-0.7;100.0
73316;BME280;61545;53.726;-0.444;2022-12-18T08:38:12;1015.9;;;-0.7;100.0
73316;BME280;61545;53.726;-0.444;2022-12-18T08:43:13;1016.1;;;-0.6;100.0
73316;BME280;61545;53.726;-0.444;2022-12-18T08:48:12;1016.0;;;-0.6;100.0
73316;BME280;61545;53.726;-0.444;2022-12-18T08:53:12;1016.0;;;-0.7;100.0
73316;BME280;61545;53.726;-0.444;2022-12-18T08:58:12;1015.9;;;-0.6;100.0
73316;BME280;61545;53.726;-0.444;2022-12-18T09:03:13;1015.8;;;-0.6;100.0
73316;BME280;61545;53.726;-0.444;2022-12-18T09:08:12;1015.8;;;-0.7;100.0
73316;BME280;61545;53.726;-0.444;2022-12-18T09:13:13;1015.7;;;-0.7;100.0
73316;BME280;61545;53.726;-0.444;2022-12-18T09:18:13;1015.7;;;-0.7;100.0
73316;BME280;61545;53.726;-0.444;2022-12-18T09:23:13;1015.5;;;-0.7;100.0
73316;BME280;61545;53.726;-0.444;2022-12-18T09:28:14;1015.4;;;-0.6;100.0
73316;BME280;61545;53.726;-0.444;2022-12-18T09:33:12;1015.5;;;-0.6;100.0
73316;BME280;61545;53.726;-0.444;2022-12-18T09:38:14;1015.5;;;-0.6;100.0
73316;BME280;61545;53.726;-0.444;2022-12-18T09:43:17;1015.3;;;-0.6;100.0
73316;BME280;61545;53.726;-0.444;2022-12-18T09:53:15;1015.2;;;-0.6;100.0
73316;BME280;61545;53.726;-0.444;2022-12-18T09:58:15;1015.0;;;-0.6;100.0
73316;BME280;61545;53.726;-0.444;2022-12-18T10:03:13;1014.9;;;-0.5;100.0
73316;BME280;61545;53.726;-0.444;2022-12-18T10:08:13;1014.8;;;-0.4;100.0
73316;BME280;61545;53.726;-0.444;2022-12-18T10:13:19;1014.9;;;-0.3;100.0
73316;BME280;61545;53.726;-0.444;2022-12-18T10:18:20;1014.8;;;-0.2;100.0
73316;BME280;61545;53.726;-0.444;2022-12-18T10:23:15;1014.8;;;-0.1;100.0
73316;BME280;61545;53.726;-0.444;2022-12-18T10:28:14;1014.7;;;-0.2;100.0
73316;BME280;61545;53.726;-0.444;2022-12-18T10:33:17;1014.5;;;-0.2;100.0
73316;BME280;61545;53.726;-0.444;2022-12-18T10:38:21;1014.3;;;-0.2;100.0
73316;BME280;61545;53.726;-0.444;2022-12-18T10:43:13;1014.2;;;-0.2;100.0
73316;BME280;61545;53.726;-0.444;2022-12-18T10:48:21;1014.2;;;-0.1;100.0
73316;BME280;61545;53.726;-0.444;2022-12-18T10:53:15;1014.1;;;-0.1;100.0
73316;BME280;61545;53.726;-0.444;2022-12-18T10:58:16;1014.0;;;-0.1;100.0
73316;BME280;61545;53.726;-0.444;2022-12-18T11:03:30;1013.8;;;-0.0;100.0
73316;BME280;61545;53.726;-0.444;2022-12-18T11:08:20;1013.4;;;0.0;100.0
73316;BME280;61545;53.726;-0.444;2022-12-18T11:13:16;1013.1;;;-0.0;100.0
73316;BME280;61545;53.726;-0.444;2022-12-18T11:18:16;1012.9;;;0.1;100.0
73316;BME280;61545;53.726;-0.444;2022-12-18T11:23:13;1012.8;;;0.2;100.0
73316;BME280;61545;53.726;-0.444;2022-12-18T11:28:25;1012.9;;;0.1;100.0
73316;BME280;61545;53.726;-0.444;2022-12-18T11:33:14;1013.0;;;0.2;100.0
73316;BME280;61545;53.726;-0.444;2022-12-18T11:38:18;1012.8;;;0.2;100.0
73316;BME280;61545;53.726;-0.444;2022-12-18T11:43:14;1012.8;;;0.2;100.0
73316;BME280;61545;53.726;-0.444;2022-12-18T11:48:14;1012.7;;;0.4;100.0
73316;BME280;61545;53.726;-0.444;2022-12-18T11:53:13;1012.7;;;0.3;100.0
73316;BME280;61545;53.726;-0.444;2022-12-18T11:58:17;1012.5;;;0.4;100.0
73316;BME280;61545;53.726;-0.444;2022-12-18T12:03:21;1012.4;;;0.4;100.0
73316;BME280;61545;53.726;-0.444;2022-12-18T12:08:15;1012.3;;;0.4;100.0
73316;BME280;61545;53.726;-0.444;2022-12-18T12:13:20;1012.2;;;0.6;100.0
73316;BME280;61545;53.726;-0.444;2022-12-18T12:18:19;1011.9;;;0.5;100.0
73316;BME280;61545;53.726;-0.444;2022-12-18T12:23:15;1011.9;;;0.5;100.0
73316;BME280;61545;53.726;-0.444;2022-12-18T12:28:21;1011.6;;;0.6;100.0
73316;BME280;61545;53.726;-0.444;2022-12-18T12:33:19;1011.3;;;0.6;100.0
73316;BME280;61545;53.726;-0.444;2022-12-18T12:38:14;1011.3;;;0.7;100.0
73316;BME280;61545;53.726;-0.444;2022-12-18T12:43:21;1011.2;;;0.7;100.0
73316;BME280;61545;53.726;-0.444;2022-12-18T12:48:17;1011.1;;;0.8;100.0
73316;BME280;61545;53.726;-0.444;2022-12-18T12:53:18;1010.9;;;0.9;100.0
73316;BME280;61545;53.726;-0.444;2022-12-18T12:58:15;1010.8;;;0.9;100.0
73316;BME280;61545;53.726;-0.444;2022-12-18T13:03:18;1010.6;;;0.9;100.0
73316;BME280;61545;53.726;-0.444;2022-12-18T13:08:22;1010.6;;;1.0;100.0
73316;BME280;61545;53.726;-0.444;2022-12-18T13:13:13;1010.6;;;0.9;100.0
73316;BME280;61545;53.726;-0.444;2022-12-18T13:18:16;1010.6;;;1.0;100.0
73316;BME280;61545;53.726;-0.444;2022-12-18T13:23:26;1010.5;;;1.0;100.0
73316;BME280;61545;53.726;-0.444;2022-12-18T13:28:13;1010.3;;;0.9;100.0
73316;BME280;61545;53.726;-0.444;2022-12-18T13:33:44;1010.3;;;0.9;100.0
73316;BME280;61545;53.726;-0.444;2022-12-18T13:38:20;1010.2;;;0.9;100.0
73316;BME280;61545;53.726;-0.444;2022-12-18T13:43:24;1010.2;;;1.0;100.0
73316;BME280;61545;53.726;-0.444;2022-12-18T13:48:19;1010.1;;;0.9;100.0
73316;BME280;61545;53.726;-0.444;2022-12-18T13:53:15;1010.0;;;0.9;100.0
73316;BME280;61545;53.726;-0.444;2022-12-18T13:58:12;1010.0;;;0.9;100.0
73316;BME280;61545;53.726;-0.444;2022-12-18T14:03:18;1009.9;;;0.9;100.0
73316;BME280;61545;53.726;-0.444;2022-12-18T14:08:14;1009.9;;;0.8;100.0
73316;BME280;61545;53.726;-0.444;2022-12-18T14:13:15;1009.8;;;0.9;100.0
73316;BME280;61545;53.726;-0.444;2022-12-18T14:18:20;1009.8;;;0.8;100.0
73316;BME280;61545;53.726;-0.444;2022-12-18T14:23:25;1009.6;;;0.8;100.0
73316;BME280;61545;53.726;-0.444;2022-12-18T14:28:14;1009.5;;;0.9;100.0
73316;BME280;61545;53.726;-0.444;2022-12-18T14:33:14;1009.5;;;0.8;100.0
73316;BME280;61545;53.726;-0.444;2022-12-18T14:38:23;1009.4;;;0.9;100.0
73316;BME280;61545;53.726;-0.444;2022-12-18T14:43:13;1009.3;;;0.9;100.0
73316;BME280;61545;53.726;-0.444;2022-12-18T14:48:16;1009.3;;;0.8;100.0
73316;BME280;61545;53.726;-0.444;2022-12-18T14:53:19;1009.2;;;0.8;100.0
73316;BME280;61545;53.726;-0.444;2022-12-18T14:58:13;1009.0;;;0.8;100.0
73316;BME280;61545;53.726;-0.444;2022-12-18T15:03:15;1009.0;;;0.9;100.0
73316;BME280;61545;53.726;-0.444;2022-12-18T15:08:27;1009.0;;;0.8;100.0
73316;BME280;61545;53.726;-0.444;2022-12-18T15:13:20;1009.0;;;0.8;100.0
73316;BME280;61545;53.726;-0.444;2022-12-18T15:18:14;1008.9;;;0.8;100.0
73316;BME280;61545;53.726;-0.444;2022-12-18T15:23:15;1008.7;;;0.7;100.0
73316;BME280;61545;53.726;-0.444;2022-12-18T15:28:17;1008.7;;;0.7;100.0
73316;BME280;61545;53.726;-0.444;2022-12-18T15:33:17;1008.6;;;0.7;100.0
73316;BME280;61545;53.726;-0.444;2022-12-18T15:38:13;1008.4;;;0.7;100.0
73316;BME280;61545;53.726;-0.444;2022-12-18T15:43:13;1008.3;;;0.7;100.0
73316;BME280;61545;53.726;-0.444;2022-12-18T15:48:18;1008.2;;;0.7;100.0
73316;BME280;61545;53.726;-0.444;2022-12-18T15:53:13;1008.1;;;0.7;100.0
73316;BME280;61545;53.726;-0.444;2022-12-18T15:58:13;1008.0;;;0.7;100.0
73316;BME280;61545;53.726;-0.444;2022-12-18T16:03:13;1007.8;;;0.7;100.0
73316;BME280;61545;53.726;-0.444;2022-12-18T16:08:13;1007.7;;;0.7;100.0
73316;BME280;61545;53.726;-0.444;2022-12-18T16:13:14;1007.7;;;0.9;100.0
73316;BME280;61545;53.726;-0.444;2022-12-18T16:18:13;1007.6;;;0.8;100.0
73316;BME280;61545;53.726;-0.444;2022-12-18T16:23:13;1007.4;;;0.7;100.0
73316;BME280;61545;53.726;-0.444;2022-12-18T16:28:13;1007.3;;;0.8;100.0
73316;BME280;61545;53.726;-0.444;2022-12-18T16:33:13;1007.3;;;0.9;100.0
73316;BME280;61545;53.726;-0.444;2022-12-18T16:38:13;1007.2;;;0.9;100.0
73316;BME280;61545;53.726;-0.444;2022-12-18T16:43:13;1007.1;;;0.9;100.0
73316;BME280;61545;53.726;-0.444;2022-12-18T16:48:13;1007.0;;;0.9;100.0
73316;BME280;61545;53.726;-0.444;2022-12-18T16:53:13;1006.9;;;1.0;100.0
73316;BME280;61545;53.726;-0.444;2022-12-18T16:58:13;1006.8;;;1.0;100.0
73316;BME280;61545;53.726;-0.444;2022-12-18T17:03:13;1006.8;;;1.0;100.0
73316;BME280;61545;53.726;-0.444;2022-12-18T17:08:13;1006.6;;;1.0;100.0
73316;BME280;61545;53.726;-0.444;2022-12-18T17:13:13;1006.4;;;1.0;100.0
73316;BME280;61545;53.726;-0.444;2022-12-18T17:18:13;1006.3;;;1.2;100.0
73316;BME280;61545;53.726;-0.444;2022-12-18T17:23:13;1006.3;;;1.2;100.0
73316;BME280;61545;53.726;-0.444;2022-12-18T17:28:13;1006.2;;;1.2;100.0
73316;BME280;61545;53.726;-0.444;2022-12-18T17:33:13;1006.2;;;1.2;100.0
73316;BME280;61545;53.726;-0.444;2022-12-18T17:38:14;1006.1;;;1.4;100.0
73316;BME280;61545;53.726;-0.444;2022-12-18T17:43:13;1006.1;;;1.4;100.0
73316;BME280;61545;53.726;-0.444;2022-12-18T17:48:13;1006.0;;;1.5;100.0
73316;BME280;61545;53.726;-0.444;2022-12-18T17:53:13;1005.8;;;1.6;100.0
73316;BME280;61545;53.726;-0.444;2022-12-18T17:58:13;1005.6;;;1.7;100.0
73316;BME280;61545;53.726;-0.444;2022-12-18T18:03:13;1005.7;;;1.7;100.0
73316;BME280;61545;53.726;-0.444;2022-12-18T18:08:13;1005.5;;;1.9;100.0
73316;BME280;61545;53.726;-0.444;2022-12-18T18:13:20;1005.4;;;2.0;100.0
73316;BME280;61545;53.726;-0.444;2022-12-18T18:18:13;1005.4;;;2.0;100.0
73316;BME280;61545;53.726;-0.444;2022-12-18T18:23:13;1005.3;;;2.1;100.0
73316;BME280;61545;53.726;-0.444;2022-12-18T18:28:13;1005.2;;;2.2;100.0
73316;BME280;61545;53.726;-0.444;2022-12-18T18:33:13;1005.1;;;2.3;100.0
73316;BME280;61545;53.726;-0.444;2022-12-18T18:38:13;1005.1;;;2.3;100.0
73316;BME280;61545;53.726;-0.444;2022-12-18T18:43:13;1005.0;;;2.3;100.0
73316;BME280;61545;53.726;-0.444;2022-12-18T18:48:13;1005.0;;;2.3;100.0
73316;BME280;61545;53.726;-0.444;2022-12-18T18:53:13;1004.8;;;2.2;100.0
73316;BME280;61545;53.726;-0.444;2022-12-18T18:58:13;1004.8;;;2.2;100.0
73316;BME280;61545;53.726;-0.444;2022-12-18T19:03:14;1004.7;;;2.2;100.0
73316;BME280;61545;53.726;-0.444;2022-12-18T19:08:13;1004.7;;;2.3;100.0
73316;BME280;61545;53.726;-0.444;2022-12-18T19:13:13;1004.6;;;2.3;100.0
73316;BME280;61545;53.726;-0.444;2022-12-18T19:18:13;1004.5;;;2.3;100.0
73316;BME280;61545;53.726;-0.444;2022-12-18T19:23:13;1004.4;;;2.3;100.0
73316;BME280;61545;53.726;-0.444;2022-12-18T19:28:13;1004.3;;;2.3;100.0
73316;BME280;61545;53.726;-0.444;2022-12-18T19:33:13;1004.2;;;2.3;100.0
73316;BME280;61545;53.726;-0.444;2022-12-18T19:38:13;1004.1;;;2.3;100.0
73316;BME280;61545;53.726;-0.444;2022-12-18T19:43:13;1004.0;;;2.3;100.0
73316;BME280;61545;53.726;-0.444;2022-12-18T19:48:13;1003.9;;;2.3;100.0
73316;BME280;61545;53.726;-0.444;2022-12-18T19:53:13;1003.8;;;2.3;100.0
73316;BME280;61545;53.726;-0.444;2022-12-18T19:58:13;1003.7;;;2.4;100.0
73316;BME280;61545;53.726;-0.444;2022-12-18T20:03:13;1003.7;;;2.4;100.0
73316;BME280;61545;53.726;-0.444;2022-12-18T20:08:13;1003.5;;;2.5;100.0
73316;BME280;61545;53.726;-0.444;2022-12-18T20:13:13;1003.5;;;2.5;100.0
73316;BME280;61545;53.726;-0.444;2022-12-18T20:18:13;1003.4;;;2.6;100.0
73316;BME280;61545;53.726;-0.444;2022-12-18T20:23:13;1003.4;;;2.6;100.0
73316;BME280;61545;53.726;-0.444;2022-12-18T20:28:13;1003.4;;;2.7;100.0
73316;BME280;61545;53.726;-0.444;2022-12-18T20:33:13;1003.2;;;2.6;100.0
73316;BME280;61545;53.726;-0.444;2022-12-18T20:38:13;1003.2;;;2.7;100.0
73316;BME280;61545;53.726;-0.444;2022-12-18T20:43:13;1003.2;;;2.7;100.0
73316;BME280;61545;53.726;-0.444;2022-12-18T20:48:13;1003.1;;;2.7;100.0
73316;BME280;61545;53.726;-0.444;2022-12-18T20:53:13;1003.1;;;2.7;100.0
73316;BME280;61545;53.726;-0.444;2022-12-18T20:58:13;1003.0;;;2.8;100.0
73316;BME280;61545;53.726;-0.444;2022-12-18T21:03:13;1003.0;;;2.8;100.0
73316;BME280;61545;53.726;-0.444;2022-12-18T21:08:13;1003.0;;;2.8;100.0
73316;BME280;61545;53.726;-0.444;2022-12-18T21:13:13;1002.9;;;2.9;100.0
73316;BME280;61545;53.726;-0.444;2022-12-18T21:18:13;1002.7;;;3.0;100.0
73316;BME280;61545;53.726;-0.444;2022-12-18T21:23:13;1002.6;;;3.0;100.0
73316;BME280;61545;53.726;-0.444;2022-12-18T21:28:13;1002.6;;;3.0;100.0
73316;BME280;61545;53.726;-0.444;2022-12-18T21:33:13;1002.5;;;3.0;100.0
73316;BME280;61545;53.726;-0.444;2022-12-18T21:38:13;1002.5;;;3.1;100.0
73316;BME280;61545;53.726;-0.444;2022-12-18T21:43:13;1002.4;;;3.1;100.0
73316;BME280;61545;53.726;-0.444;2022-12-18T21:48:13;1002.3;;;3.1;100.0
73316;BME280;61545;53.726;-0.444;2022-12-18T21:53:13;1002.2;;;3.2;100.0
73316;BME280;61545;53.726;-0.444;2022-12-18T21:58:13;1002.0;;;3.2;100.0
73316;BME280;61545;53.726;-0.444;2022-12-18T22:03:13;1001.9;;;3.2;100.0
73316;BME280;61545;53.726;-0.444;2022-12-18T22:08:13;1001.9;;;3.3;100.0
73316;BME280;61545;53.726;-0.444;2022-12-18T22:13:13;1001.8;;;3.4;100.0
73316;BME280;61545;53.726;-0.444;2022-12-18T22:18:13;1001.7;;;3.4;100.0
73316;BME280;61545;53.726;-0.444;2022-12-18T22:23:13;1001.7;;;3.4;100.0
73316;BME280;61545;53.726;-0.444;2022-12-18T22:28:13;1001.6;;;3.4;100.0
73316;BME280;61545;53.726;-0.444;2022-12-18T22:33:13;1001.3;;;3.4;100.0
73316;BME280;61545;53.726;-0.444;2022-12-18T22:38:13;1001.4;;;3.4;100.0
73316;BME280;61545;53.726;-0.444;2022-12-18T22:43:13;1001.4;;;3.5;100.0
73316;BME280;61545;53.726;-0.444;2022-12-18T22:48:13;1001.3;;;3.5;100.0
73316;BME280;61545;53.726;-0.444;2022-12-18T22:53:13;1001.2;;;3.5;100.0
73316;BME280;61545;53.726;-0.444;2022-12-18T22:58:13;1001.1;;;3.7;100.0
73316;BME280;61545;53.726;-0.444;2022-12-18T23:03:13;1001.1;;;3.7;100.0
73316;BME280;61545;53.726;-0.444;2022-12-18T23:08:13;1001.0;;;3.7;100.0
73316;BME280;61545;53.726;-0.444;2022-12-18T23:13:16;1000.9;;;3.7;100.0
73316;BME280;61545;53.726;-0.444;2022-12-18T23:18:13;1001.0;;;3.7;100.0
73316;BME280;61545;53.726;-0.444;2022-12-18T23:23:13;1000.8;;;3.8;100.0
73316;BME280;61545;53.726;-0.444;2022-12-18T23:28:13;1000.8;;;3.8;100.0
73316;BME280;61545;53.726;-0.444;2022-12-18T23:33:13;1000.6;;;3.9;100.0
73316;BME280;61545;53.726;-0.444;2022-12-18T23:38:13;1000.6;;;3.9;100.0
73316;BME280;61545;53.726;-0.444;2022-12-18T23:43:13;1000.6;;;3.9;100.0
73316;BME280;61545;53.726;-0.444;2022-12-18T23:48:13;1000.4;;;4.0;100.0
73316;BME280;61545;53.726;-0.444;2022-12-18T23:53:13;1000.3;;;4.2;100.0
73316;BME280;61545;53.726;-0.444;2022-12-18T23:58:15;1000.2;;;4.0;100.0
